| Date | Time | Temp. (oF) | Dew Point (oF) | Rel. Hum. (%) | Press. (in.) | Wind Dir. | Wind Speed (mph) | Hourly Rainfall (in.) |
|
|---|---|---|---|---|---|---|---|---|---|
| 1 | 07/20 | 00:00 | 70 | 65 | 86 | 30.07 | NNE | 0 | 0.00 |
| 2 | 07/19 | 23:00 | 72 | 65 | 79 | 30.07 | SSW | 0 | 0.00 |
| 3 | 07/19 | 22:00 | 74 | 63 | 70 | 30.06 | ENE | 0 | 0.00 |
| 4 | 07/19 | 21:00 | 76 | 62 | 64 | 30.03 | ESE | 2 | 0.00 |
| 5 | 07/19 | 20:00 | 80 | 63 | 58 | 30.01 | E | 0 | 0.00 |
| 6 | 07/19 | 19:00 | 83 | 64 | 54 | 29.99 | ESE | 0 | 0.00 |
| 7 | 07/19 | 18:00 | 87 | 62 | 45 | 29.98 | NNE | 0 | 0.00 |
| 8 | 07/19 | 17:00 | 88 | 63 | 44 | 30.00 | N | 0 | 0.00 |
| 9 | 07/19 | 16:00 | 86 | 63 | 47 | 30.03 | NNE | 0 | 0.00 |
| 10 | 07/19 | 15:00 | 85 | 64 | 51 | 30.03 | NE | 0 | 0.00 |
| 11 | 07/19 | 14:00 | 84 | 64 | 53 | 30.05 | S | 0 | 0.00 |
| 12 | 07/19 | 13:00 | 83 | 67 | 59 | 30.07 | N | 7 | 0.00 |
| 13 | 07/19 | 12:00 | 82 | 68 | 63 | 30.09 | N | 4 | 0.00 |
| 14 | 07/19 | 11:00 | 80 | 69 | 70 | 30.10 | WSW | 2 | 0.00 |
| 15 | 07/19 | 10:00 | 79 | 70 | 76 | 30.09 | N | 6 | 0.00 |
| 16 | 07/19 | 09:00 | 75 | 71 | 90 | 30.07 | NNW | 6 | 0.00 |
| 17 | 07/19 | 08:00 | 71 | 71 | 100 | 30.06 | N | 3 | 0.00 |
| 18 | 07/19 | 07:00 | 69 | 68 | 97 | 30.06 | SW | 0 | 0.00 |
| 19 | 07/19 | 06:00 | 69 | 67 | 95 | 30.04 | WSW | 0 | 0.00 |
| 20 | 07/19 | 05:00 | 69 | 67 | 96 | 30.02 | S | 0 | 0.00 |
| 21 | 07/19 | 04:00 | 68 | 68 | 100 | 30.01 | S | 0 | 0.00 |
| 22 | 07/19 | 03:00 | 70 | 69 | 100 | 30.00 | SSE | 0 | 0.00 |
| 23 | 07/19 | 02:00 | 71 | 71 | 100 | 29.99 | S | 0 | 0.00 |
| 24 | 07/19 | 01:00 | 73 | 72 | 100 | 29.99 | ENE | 1 | 0.00 |